Time;durP1;ratioP1;P1;durP2;ratioP2;P2;SDS_P1;SDS_P2;PMS_P1;PMS_P2;Temp;Humidity;BMP_temperature;BMP_pressure;BME280_temperature;BME280_humidity;BME280_pressure;Samples;Min_cycle;Max_cycle;Signal;HPM_P1;HPM_P2
2023/10/19 00:01:34;;;;;;;;;;;;;;;16.47;65.69;99112.38;4218316;28;19924;-67
2023/10/19 00:03:36;;;;;;;;;;;;;;;16.45;64.81;99112.50;4213456;28;20022;-67
2023/10/19 00:05:38;;;;;;;;;;;;;;;16.44;64.60;99110.84;4213554;28;19946;-67
2023/10/19 00:07:40;;;;;;;;;;;;;;;16.45;65.57;99115.16;4213525;28;19924;-68
2023/10/19 00:09:46;;;;;;;;;;;;;;;16.43;64.91;99112.63;4213651;28;19998;-67
2023/10/19 00:11:50;;;;;;;;;;;;;;;16.45;65.24;99112.50;4213401;28;19924;-67
2023/10/19 00:13:57;;;;;;;;;;;;;;;16.43;64.90;99114.47;4213291;28;19993;-67
2023/10/19 00:15:59;;;;;;;;;;;;;;;16.44;65.13;99118.81;4213581;28;19923;-68
2023/10/19 00:20:51;;;;;;;;;;;;;;;16.43;65.09;99115.28;4145453;28;20024;-68
2023/10/19 00:22:53;;;;;;;;;;;;;;;16.42;65.05;99126.88;4145221;28;19992;-68
2023/10/19 00:24:55;;;;;;;;;;;;;;;16.44;65.51;99124.94;4145228;28;19929;-68
2023/10/19 00:26:56;;;;;;;;;;;;;;;16.43;64.98;99133.03;4145527;28;19926;-66
2023/10/19 00:28:59;;;;;;;;;;;;;;;16.44;65.36;99132.91;4145528;28;19926;-67
2023/10/19 00:31:04;;;;;;;;;;;;;;;16.45;64.33;99128.41;4145381;28;19965;-67
2023/10/19 00:33:15;;;;;;;;;;;;;;;16.44;64.65;99127.59;4145010;28;19976;-67
2023/10/19 00:35:35;;;;;;;;;;;;;;;16.44;64.24;99122.28;4145399;28;19995;-68
2023/10/19 00:37:42;;;;;;;;;;;;;;;16.44;64.31;99129.41;4145287;28;19980;-67
2023/10/19 00:39:47;;;;;;;;;;;;;;;16.42;64.41;99123.41;4145327;28;19978;-65
2023/10/19 00:41:50;;;;;;;;;;;;;;;16.43;64.69;99123.25;4145241;28;19926;-67
2023/10/19 00:43:59;;;;;;;;;;;;;;;16.42;64.77;99121.56;4145155;28;19926;-67
2023/10/19 00:46:03;;;;;;;;;;;;;;;16.44;64.63;99118.81;4145178;28;19993;-67
2023/10/19 00:48:08;;;;;;;;;;;;;;;16.43;64.23;99112.63;4128953;28;19972;-68
2023/10/19 00:50:15;;;;;;;;;;;;;;;16.43;64.49;99110.00;4147997;28;19929;-67
2023/10/19 00:52:23;;;;;;;;;;;;;;;16.43;64.68;99110.00;4147938;28;19925;-67
2023/10/19 00:54:35;;;;;;;;;;;;;;;16.43;65.09;99107.34;4147940;28;20653;-67
2023/10/19 00:56:37;;;;;;;;;;;;;;;16.43;64.41;99095.88;4186048;28;19928;-67
2023/10/19 00:58:41;;;;;;;;;;;;;;;16.43;64.76;99099.38;4215948;28;19924;-67
2023/10/19 01:00:43;;;;;;;;;;;;;;;16.43;64.71;99093.25;4220834;28;20019;-67
2023/10/19 01:02:45;;;;;;;;;;;;;;;16.43;65.48;99087.94;4232594;28;19962;-66
2023/10/19 01:05:05;;;;;;;;;;;;;;;16.43;64.82;99085.28;4232633;28;19924;-67
2023/10/19 01:07:12;;;;;;;;;;;;;;;16.42;64.71;99084.41;4232852;28;19934;-67
2023/10/19 01:09:20;;;;;;;;;;;;;;;16.42;64.96;99084.41;4232689;28;20007;-68
2023/10/19 01:11:21;;;;;;;;;;;;;;;16.41;64.42;99080.09;4232697;28;19977;-67
2023/10/19 01:13:34;;;;;;;;;;;;;;;16.41;64.41;99080.09;4232525;28;19963;-67
2023/10/19 01:15:40;;;;;;;;;;;;;;;16.41;64.69;99072.13;4232897;28;20341;-67
2023/10/19 01:17:52;;;;;;;;;;;;;;;16.41;64.55;99069.47;4224313;28;20022;-67
2023/10/19 01:19:55;;;;;;;;;;;;;;;16.41;64.29;99064.16;4230579;28;19928;-67
2023/10/19 01:22:03;;;;;;;;;;;;;;;16.40;63.81;99053.69;4232490;28;19935;-68
2023/10/19 01:24:08;;;;;;;;;;;;;;;16.40;64.09;99053.69;4232264;28;20022;-67
2023/10/19 01:26:10;;;;;;;;;;;;;;;16.40;64.91;99051.91;4232516;28;20365;-67
2023/10/19 01:28:16;;;;;;;;;;;;;;;16.41;64.96;99050.06;4232415;28;19952;-67
2023/10/19 01:30:18;;;;;;;;;;;;;;;16.41;65.29;99044.75;4232140;28;19958;-67
2023/10/19 01:32:20;;;;;;;;;;;;;;;16.41;64.67;99053.53;4232425;28;19969;-67
2023/10/19 01:34:22;;;;;;;;;;;;;;;16.41;64.60;99048.25;4232184;28;19924;-67
2023/10/19 01:36:32;;;;;;;;;;;;;;;16.41;64.49;99039.47;4232114;28;19924;-67
2023/10/19 01:38:39;;;;;;;;;;;;;;;16.40;64.47;99038.63;4232399;28;20381;-67
2023/10/19 01:40:46;;;;;;;;;;;;;;;16.41;64.83;99031.50;4232407;28;19930;-67
2023/10/19 01:42:47;;;;;;;;;;;;;;;16.41;64.58;99023.53;4214198;28;19930;-67
2023/10/19 01:44:49;;;;;;;;;;;;;;;16.41;64.89;99020.88;4231948;28;20014;-67
2023/10/19 01:46:50;;;;;;;;;;;;;;;16.40;64.31;99017.41;4232206;28;20031;-67
2023/10/19 01:48:56;;;;;;;;;;;;;;;16.41;64.01;99013.75;4232351;28;19930;-68
2023/10/19 01:50:58;;;;;;;;;;;;;;;16.41;65.48;99008.44;4232239;28;19923;-68
2023/10/19 01:53:00;;;;;;;;;;;;;;;16.40;64.70;99000.63;4231922;28;19930;-67
2023/10/19 01:55:07;;;;;;;;;;;;;;;16.41;65.17;98999.66;4231932;28;19924;-65
2023/10/19 01:57:09;;;;;;;;;;;;;;;16.41;64.96;98997.00;4232052;28;19928;-68
2023/10/19 01:59:16;;;;;;;;;;;;;;;16.39;64.67;98998.94;4231738;28;19935;-68
2023/10/19 02:03:28;;;;;;;;;;;;;;;16.41;65.03;98991.69;4214993;28;19924;-67
2023/10/19 02:05:39;;;;;;;;;;;;;;;16.40;64.84;98987.34;4215062;28;20000;-67
2023/10/19 02:07:40;;;;;;;;;;;;;;;16.39;64.77;98991.84;4214856;28;19924;-67
2023/10/19 02:09:47;;;;;;;;;;;;;;;16.41;65.46;98997.00;4214879;28;19960;-68
2023/10/19 02:11:50;;;;;;;;;;;;;;;16.40;64.86;98985.56;4214959;28;19924;-67
2023/10/19 02:13:52;;;;;;;;;;;;;;;16.39;64.23;98977.72;4214531;28;19924;-67
2023/10/19 02:15:56;;;;;;;;;;;;;;;16.39;64.57;98973.28;4214859;28;20011;-67
2023/10/19 02:18:00;;;;;;;;;;;;;;;16.39;64.83;98970.63;4214868;28;20023;-66
2023/10/19 02:20:13;;;;;;;;;;;;;;;16.39;64.37;98970.63;4230562;28;19931;-67
2023/10/19 02:22:19;;;;;;;;;;;;;;;16.40;65.26;98972.31;4231671;28;19963;-67
2023/10/19 02:24:26;;;;;;;;;;;;;;;16.40;64.92;98960.81;4231273;28;19928;-67
2023/10/19 02:26:28;;;;;;;;;;;;;;;16.40;64.47;98961.69;4231533;28;19959;-66
2023/10/19 02:28:37;;;;;;;;;;;;;;;16.40;64.42;98960.81;4231176;28;19923;-67
2023/10/19 02:30:40;;;;;;;;;;;;;;;16.40;64.92;98958.19;4231483;28;20432;-67
2023/10/19 02:32:43;;;;;;;;;;;;;;;16.40;64.73;98958.19;4231218;28;19923;-67
2023/10/19 02:34:45;;;;;;;;;;;;;;;16.40;64.83;98951.06;4231422;28;19930;-67
2023/10/19 02:36:47;;;;;;;;;;;;;;;16.41;64.27;98962.50;4231151;28;19924;-66
2023/10/19 02:38:52;;;;;;;;;;;;;;;16.40;64.51;98952.88;4231449;28;19930;-67
2023/10/19 02:40:54;;;;;;;;;;;;;;;16.41;64.98;98954.56;4231166;28;19932;-67
2023/10/19 02:42:56;;;;;;;;;;;;;;;16.41;65.53;98957.22;4230757;28;19928;-67
2023/10/19 02:44:59;;;;;;;;;;;;;;;16.40;65.00;98964.34;4231168;28;20339;-66
2023/10/19 02:47:05;;;;;;;;;;;;;;;16.39;64.27;98959.16;4231190;28;20026;-67
2023/10/19 02:49:11;;;;;;;;;;;;;;;16.39;64.38;98962.66;4231290;28;19928;-67
2023/10/19 02:51:13;;;;;;;;;;;;;;;16.40;65.47;98959.03;4230983;28;20254;-67
2023/10/19 02:53:14;;;;;;;;;;;;;;;16.40;65.12;98959.03;4212882;28;19928;-67
2023/10/19 02:55:16;;;;;;;;;;;;;;;16.40;64.84;98959.03;4231069;28;19939;-67
2023/10/19 02:57:19;;;;;;;;;;;;;;;16.40;65.70;98952.88;4230672;28;20030;-66
2023/10/19 02:59:24;;;;;;;;;;;;;;;16.39;64.46;98948.53;4230786;28;19930;-66
2023/10/19 03:01:28;;;;;;;;;;;;;;;16.39;64.58;98945.88;4219944;28;20300;-66
2023/10/19 03:03:30;;;;;;;;;;;;;;;16.40;65.04;98953.72;4213999;28;20007;-67
2023/10/19 03:05:34;;;;;;;;;;;;;;;16.40;64.42;98955.53;4214308;28;19958;-67
2023/10/19 03:07:44;;;;;;;;;;;;;;;16.40;65.07;98953.72;4214115;28;19931;-66
2023/10/19 03:09:49;;;;;;;;;;;;;;;16.41;64.98;98952.72;4214084;28;19928;-66
2023/10/19 03:11:59;;;;;;;;;;;;;;;16.41;64.91;98951.91;4213179;28;19969;-67
2023/10/19 03:14:04;;;;;;;;;;;;;;;16.40;64.61;98951.06;4214194;28;20369;-67
2023/10/19 03:16:07;;;;;;;;;;;;;;;16.38;64.47;98947.72;4214097;28;19932;-67
2023/10/19 03:18:09;;;;;;;;;;;;;;;16.39;65.08;98952.03;4213692;28;20026;-67
2023/10/19 03:20:11;;;;;;;;;;;;;;;16.39;65.86;98944.09;4231100;28;19978;-67
2023/10/19 03:22:12;;;;;;;;;;;;;;;16.38;65.14;98929.13;4230708;28;20374;-67
2023/10/19 03:24:35;;;;;;;;;;;;;;;16.38;64.50;98929.13;4230453;28;19959;-67
2023/10/19 03:26:37;;;;;;;;;;;;;;;16.39;64.65;98917.56;4230198;28;19932;-67
2023/10/19 03:28:40;;;;;;;;;;;;;;;16.38;64.50;98913.22;4230657;28;20373;-67
2023/10/19 03:30:42;;;;;;;;;;;;;;;16.38;64.80;98912.34;4230650;28;19931;-66
2023/10/19 03:32:44;;;;;;;;;;;;;;;16.37;64.40;98908.88;4230531;28;19924;-67
2023/10/19 03:34:50;;;;;;;;;;;;;;;16.36;63.92;98907.19;4230540;28;19935;-67
2023/10/19 03:36:52;;;;;;;;;;;;;;;16.37;64.03;98918.66;4230412;28;20052;-67
2023/10/19 03:38:53;;;;;;;;;;;;;;;16.38;63.97;98917.66;4230593;28;19930;-67
2023/10/19 03:41:06;;;;;;;;;;;;;;;16.38;64.54;98917.66;4230491;28;19931;-67
2023/10/19 03:43:17;;;;;;;;;;;;;;;16.37;64.06;98914.19;4230660;28;19999;-67
2023/10/19 03:45:22;;;;;;;;;;;;;;;16.37;64.27;98922.16;4230573;28;19999;-66
2023/10/19 03:47:35;;;;;;;;;;;;;;;16.37;64.25;98918.66;4230336;28;19955;-68
2023/10/19 03:49:39;;;;;;;;;;;;;;;16.37;64.51;98908.06;4230694;28;20477;-66
2023/10/19 03:51:57;;;;;;;;;;;;;;;16.36;64.09;98912.50;4230491;28;19928;-66
2023/10/19 03:54:01;;;;;;;;;;;;;;;16.37;64.15;98908.88;4230579;28;19951;-67
2023/10/19 03:56:05;;;;;;;;;;;;;;;16.37;63.70;98902.75;4230334;28;20270;-66
2023/10/19 03:58:07;;;;;;;;;;;;;;;16.37;64.72;98895.63;4230540;28;19931;-67
2023/10/19 04:00:15;;;;;;;;;;;;;;;16.36;63.60;98890.44;4230308;28;19924;-67
2023/10/19 04:02:20;;;;;;;;;;;;;;;16.36;64.05;98885.16;4213912;28;19928;-66
2023/10/19 04:04:23;;;;;;;;;;;;;;;16.35;64.04;98876.34;4213509;28;19924;-68
2023/10/19 04:06:24;;;;;;;;;;;;;;;16.37;64.95;98889.47;4213723;28;19927;-67
2023/10/19 04:08:26;;;;;;;;;;;;;;;16.35;63.50;98886.94;4213384;28;20007;-67
2023/10/19 04:12:37;;;;;;;;;;;;;;;16.36;63.83;98875.38;4213471;28;20114;-66
2023/10/19 04:14:39;;;;;;;;;;;;;;;16.36;63.75;98877.19;4213285;28;19924;-67
2023/10/19 04:16:43;;;;;;;;;;;;;;;16.36;65.18;98871.88;4195445;28;20311;-66
2023/10/19 04:18:45;;;;;;;;;;;;;;;16.35;64.31;98868.38;4218096;28;19930;-67
2023/10/19 04:22:54;;;;;;;;;;;;;;;16.35;64.34;98860.41;4230376;28;19977;-66
2023/10/19 04:24:56;;;;;;;;;;;;;;;16.34;63.63;98861.38;4232814;28;19924;-66
2023/10/19 04:26:59;;;;;;;;;;;;;;;16.35;64.28;98856.94;4233516;28;19931;-66
2023/10/19 04:29:09;;;;;;;;;;;;;;;16.34;63.66;98861.38;4233455;28;20381;-67
2023/10/19 04:31:14;;;;;;;;;;;;;;;16.35;64.80;98849.81;4233349;28;19924;-67
2023/10/19 04:33:18;;;;;;;;;;;;;;;16.35;64.08;98846.31;4233346;28;20308;-66
2023/10/19 04:35:23;;;;;;;;;;;;;;;16.34;63.78;98847.28;4233325;28;19979;-66
2023/10/19 04:37:24;;;;;;;;;;;;;;;16.33;63.87;98846.47;4233184;28;19924;-67
2023/10/19 04:39:28;;;;;;;;;;;;;;;16.34;64.12;98848.13;4233118;28;19928;-67
2023/10/19 04:41:29;;;;;;;;;;;;;;;16.33;63.67;98841.16;4215072;28;19969;-67
2023/10/19 04:43:31;;;;;;;;;;;;;;;16.33;64.01;98840.31;4233263;28;20424;-66
2023/10/19 04:45:33;;;;;;;;;;;;;;;16.33;64.05;98842.97;4233227;28;19928;-67
2023/10/19 04:47:37;;;;;;;;;;;;;;;16.34;63.99;98828.72;4233109;28;19924;-67
2023/10/19 04:49:39;;;;;;;;;;;;;;;16.33;63.77;98832.34;4232997;28;19928;-66
2023/10/19 04:51:43;;;;;;;;;;;;;;;16.32;64.05;98823.56;4233095;28;20436;-66
2023/10/19 04:53:44;;;;;;;;;;;;;;;16.34;64.10;98826.06;4232654;28;20431;-66
2023/10/19 04:55:46;;;;;;;;;;;;;;;16.33;63.39;98821.75;4233023;28;20381;-67
2023/10/19 04:57:48;;;;;;;;;;;;;;;16.32;64.09;98818.25;4232977;28;19928;-66
2023/10/19 04:59:50;;;;;;;;;;;;;;;16.33;63.92;98811.13;4232984;28;19924;-66
2023/10/19 05:01:52;;;;;;;;;;;;;;;16.32;63.52;98806.78;4218349;28;19931;-66
2023/10/19 05:03:53;;;;;;;;;;;;;;;16.33;63.63;98796.06;4215884;28;19931;-66
2023/10/19 05:05:56;;;;;;;;;;;;;;;16.32;63.93;98797.03;4215937;28;20041;-67
2023/10/19 05:07:58;;;;;;;;;;;;;;;16.33;63.98;98788.09;4215607;28;19928;-67
2023/10/19 05:09:59;;;;;;;;;;;;;;;16.32;63.49;98789.09;4215796;28;20436;-66
2023/10/19 05:12:01;;;;;;;;;;;;;;;16.33;63.30;98787.25;4215789;28;19963;-66
2023/10/19 05:14:05;;;;;;;;;;;;;;;16.33;63.79;98787.25;4215877;28;19928;-66
2023/10/19 05:16:07;;;;;;;;;;;;;;;16.32;64.00;98778.47;4216103;28;19924;-67
2023/10/19 05:18:09;;;;;;;;;;;;;;;16.32;64.01;98781.13;4215725;28;19946;-67
2023/10/19 05:20:11;;;;;;;;;;;;;;;16.32;63.44;98790.88;4232396;28;19967;-67
2023/10/19 05:22:12;;;;;;;;;;;;;;;16.33;63.87;98789.91;4232256;28;19924;-67
2023/10/19 05:24:14;;;;;;;;;;;;;;;16.32;63.65;98786.44;4231766;28;19924;-66
2023/10/19 05:26:16;;;;;;;;;;;;;;;16.33;64.28;98785.47;4232452;28;20015;-68
2023/10/19 05:28:18;;;;;;;;;;;;;;;16.32;63.72;98782.91;4232474;28;19947;-67
2023/10/19 05:30:22;;;;;;;;;;;;;;;16.31;63.96;98768.84;4232527;28;19966;-66
2023/10/19 05:32:24;;;;;;;;;;;;;;;16.31;63.78;98766.19;4232476;28;19924;-67
2023/10/19 05:34:29;;;;;;;;;;;;;;;16.32;63.76;98759.03;4231750;28;20022;-66
2023/10/19 05:36:32;;;;;;;;;;;;;;;16.31;63.85;98758.22;4230914;28;19932;-67
2023/10/19 05:38:34;;;;;;;;;;;;;;;16.31;63.82;98747.63;4214148;28;19924;-66
2023/10/19 05:40:35;;;;;;;;;;;;;;;16.31;63.72;98739.66;4232453;28;19927;-67
2023/10/19 05:42:37;;;;;;;;;;;;;;;16.30;64.18;98737.97;4232321;28;20426;-67
2023/10/19 05:44:39;;;;;;;;;;;;;;;16.30;63.64;98732.66;4232196;28;20036;-67
2023/10/19 05:46:41;;;;;;;;;;;;;;;16.31;63.61;98726.38;4232498;28;20019;-67
2023/10/19 05:48:43;;;;;;;;;;;;;;;16.31;63.71;98718.44;4231895;28;20002;-68
2023/10/19 05:50:44;;;;;;;;;;;;;;;16.31;63.55;98731.69;4232133;28;19962;-67
2023/10/19 05:52:47;;;;;;;;;;;;;;;16.31;63.95;98734.34;4231836;28;20023;-67
2023/10/19 05:54:53;;;;;;;;;;;;;;;16.32;64.29;98736.03;4231965;28;19977;-67
2023/10/19 05:56:55;;;;;;;;;;;;;;;16.32;63.40;98740.47;4232169;28;19924;-66
2023/10/19 05:58:57;;;;;;;;;;;;;;;16.32;63.60;98737.81;4232113;28;19923;-66
2023/10/19 06:00:59;;;;;;;;;;;;;;;16.32;63.72;98744.00;4224464;28;19938;-66
2023/10/19 06:03:01;;;;;;;;;;;;;;;16.25;63.91;98740.22;4214984;28;19935;-67
2023/10/19 06:05:04;;;;;;;;;;;;;;;16.32;64.40;98749.28;4215078;28;20466;-67
2023/10/19 06:07:06;;;;;;;;;;;;;;;16.33;64.43;98744.81;4214811;28;19931;-67
2023/10/19 06:09:11;;;;;;;;;;;;;;;16.32;64.30;98749.28;4196681;28;19972;-67
2023/10/19 06:11:13;;;;;;;;;;;;;;;16.31;64.24;98750.25;4214988;28;19924;-68
2023/10/19 06:13:15;;;;;;;;;;;;;;;16.31;63.85;98746.75;4196957;28;19928;-67
2023/10/19 06:15:18;;;;;;;;;;;;;;;16.32;63.79;98748.44;4214969;28;20022;-67
2023/10/19 06:17:19;;;;;;;;;;;;;;;16.31;63.68;98734.34;4214748;28;19931;-67
2023/10/19 06:19:22;;;;;;;;;;;;;;;16.31;63.64;98718.44;4224694;28;19924;-67
2023/10/19 06:21:23;;;;;;;;;;;;;;;16.29;63.44;98713.28;4231080;28;19931;-67
2023/10/19 06:23:25;;;;;;;;;;;;;;;16.29;63.46;98707.13;4231500;28;19970;-67
2023/10/19 06:25:26;;;;;;;;;;;;;;;16.29;63.40;98700.00;4231630;28;20301;-67
2023/10/19 06:27:29;;;;;;;;;;;;;;;16.30;63.73;98708.78;4231493;28;19928;-67
2023/10/19 06:29:31;;;;;;;;;;;;;;;16.20;63.35;98689.41;4231400;28;19924;-68
2023/10/19 06:31:32;;;;;;;;;;;;;;;16.29;63.19;98712.41;4231385;28;19924;-67
2023/10/19 06:33:35;;;;;;;;;;;;;;;16.29;62.81;98713.28;4231460;28;19947;-68
2023/10/19 06:35:37;;;;;;;;;;;;;;;16.29;63.24;98712.41;4213141;28;19932;-67
2023/10/19 06:37:40;;;;;;;;;;;;;;;16.29;63.12;98721.22;4231503;28;20346;-67
2023/10/19 06:39:41;;;;;;;;;;;;;;;16.30;63.25;98722.06;4231452;28;19931;-68
2023/10/19 06:41:43;;;;;;;;;;;;;;;16.17;63.35;98700.28;4213270;28;20479;-68
2023/10/19 06:43:45;;;;;;;;;;;;;;;16.30;63.20;98724.72;4213286;28;20382;-67
2023/10/19 06:45:46;;;;;;;;;;;;;;;16.31;63.44;98717.56;4230365;28;19924;-67
2023/10/19 06:47:52;;;;;;;;;;;;;;;16.31;63.69;98720.22;4231195;28;19923;-67
2023/10/19 06:49:55;;;;;;;;;;;;;;;16.31;63.19;98721.09;4230790;28;19969;-67
2023/10/19 06:51:57;;;;;;;;;;;;;;;16.31;63.47;98722.88;4231228;28;20372;-67
2023/10/19 06:53:58;;;;;;;;;;;;;;;16.31;63.44;98723.75;4231091;28;19927;-67
2023/10/19 06:56:01;;;;;;;;;;;;;;;16.31;63.00;98723.75;4230951;28;19928;-67
2023/10/19 06:58:04;;;;;;;;;;;;;;;16.32;63.32;98716.59;4231295;28;20421;-67
2023/10/19 07:00:14;;;;;;;;;;;;;;;16.31;63.01;98712.28;4230979;28;20022;-67
2023/10/19 07:02:16;;;;;;;;;;;;;;;16.32;63.73;98714.81;4197485;28;20015;-67
2023/10/19 07:04:17;;;;;;;;;;;;;;;16.32;63.70;98708.66;4196889;28;19948;-68
2023/10/19 07:06:19;;;;;;;;;;;;;;;16.32;63.74;98717.47;4197590;28;20011;-67
2023/10/19 07:08:21;;;;;;;;;;;;;;;16.33;63.57;98710.31;4197388;28;19924;-67
2023/10/19 07:10:23;;;;;;;;;;;;;;;16.33;63.38;98710.31;4197445;28;19931;-66
2023/10/19 07:12:25;;;;;;;;;;;;;;;16.34;63.64;98709.34;4197150;28;19986;-67
2023/10/19 07:14:27;;;;;;;;;;;;;;;16.33;63.60;98707.66;4197286;28;19924;-67
2023/10/19 07:16:29;;;;;;;;;;;;;;;16.32;63.81;98701.53;4197076;28;19939;-66
2023/10/19 07:18:31;;;;;;;;;;;;;;;16.33;63.80;98697.06;4214613;28;19927;-67
2023/10/19 07:20:35;;;;;;;;;;;;;;;16.34;63.33;98696.09;4230706;28;19975;-66
2023/10/19 07:22:42;;;;;;;;;;;;;;;16.33;63.26;98694.41;4230954;28;19958;-67
2023/10/19 07:24:44;;;;;;;;;;;;;;;16.32;62.98;98692.72;4230522;28;19982;-67
2023/10/19 07:27:04;;;;;;;;;;;;;;;16.33;63.57;98694.41;4230825;28;20379;-67
2023/10/19 07:29:10;;;;;;;;;;;;;;;16.32;63.60;98682.97;4230801;28;19963;-67
2023/10/19 07:31:15;;;;;;;;;;;;;;;16.32;63.44;98690.94;4230905;28;20328;-67
2023/10/19 07:33:17;;;;;;;;;;;;;;;16.32;63.96;98690.94;4230384;28;19931;-67
2023/10/19 07:35:19;;;;;;;;;;;;;;;16.31;63.35;98681.28;4230686;28;19973;-67
2023/10/19 07:37:21;;;;;;;;;;;;;;;16.32;63.12;98676.81;4230611;28;20365;-67
2023/10/19 07:39:23;;;;;;;;;;;;;;;16.32;63.74;98674.16;4230876;28;19967;-67
2023/10/19 07:41:24;;;;;;;;;;;;;;;16.32;63.44;98675.00;4230542;28;20026;-67
2023/10/19 07:43:26;;;;;;;;;;;;;;;16.32;63.80;98680.31;4230774;28;19959;-67
2023/10/19 07:45:28;;;;;;;;;;;;;;;16.34;63.93;98666.91;4230515;28;20128;-67
2023/10/19 07:47:32;;;;;;;;;;;;;;;16.33;63.66;98665.22;4230346;28;19967;-67
2023/10/19 07:49:33;;;;;;;;;;;;;;;16.33;63.75;98651.97;4230412;28;20026;-67
2023/10/19 07:51:35;;;;;;;;;;;;;;;16.32;63.71;98650.28;4230550;28;19930;-67
2023/10/19 07:53:36;;;;;;;;;;;;;;;16.34;63.35;98653.66;4230708;28;19923;-67
2023/10/19 07:55:39;;;;;;;;;;;;;;;16.33;63.65;98654.63;4230408;28;19924;-67
2023/10/19 07:57:41;;;;;;;;;;;;;;;16.33;63.86;98662.56;4232163;28;19927;-67
2023/10/19 07:59:44;;;;;;;;;;;;;;;16.35;63.82;98663.28;4233887;28;19931;-67
2023/10/19 08:01:46;;;;;;;;;;;;;;;16.34;63.51;98667.72;4219942;28;19924;-67
2023/10/19 08:03:47;;;;;;;;;;;;;;;16.36;63.48;98667.63;4217025;28;19947;-67
2023/10/19 08:05:49;;;;;;;;;;;;;;;16.35;63.26;98663.28;4216837;28;19924;-67
2023/10/19 08:07:50;;;;;;;;;;;;;;;16.36;63.85;98665.78;4217000;28;19973;-67
2023/10/19 08:09:52;;;;;;;;;;;;;;;16.37;63.24;98671.94;4216894;28;19986;-68
2023/10/19 08:11:58;;;;;;;;;;;;;;;16.37;63.45;98669.28;4216820;28;19931;-67
2023/10/19 08:14:02;;;;;;;;;;;;;;;16.36;63.04;98671.09;4216863;28;19925;-68
2023/10/19 08:16:06;;;;;;;;;;;;;;;16.36;63.29;98665.78;4216556;28;19931;-67
2023/10/19 08:18:11;;;;;;;;;;;;;;;16.37;63.97;98663.97;4216240;28;19924;-67
2023/10/19 08:20:23;;;;;;;;;;;;;;;16.37;63.56;98671.94;4216644;28;20045;-67
2023/10/19 08:22:27;;;;;;;;;;;;;;;16.37;63.74;98664.81;4216750;28;19931;-67
2023/10/19 08:24:30;;;;;;;;;;;;;;;16.37;63.32;98659.50;4216420;28;19924;-68
2023/10/19 08:26:32;;;;;;;;;;;;;;;16.37;63.35;98658.69;4198496;28;20301;-68
2023/10/19 08:28:34;;;;;;;;;;;;;;;16.37;63.53;98661.34;4216253;28;19931;-68
2023/10/19 08:30:37;;;;;;;;;;;;;;;16.38;63.52;98657.66;4216576;28;19934;-67
2023/10/19 08:32:39;;;;;;;;;;;;;;;16.38;63.57;98653.22;4216095;28;19924;-68
2023/10/19 08:34:41;;;;;;;;;;;;;;;16.39;63.45;98659.34;4216437;28;19924;-68
2023/10/19 08:36:45;;;;;;;;;;;;;;;16.40;63.39;98655.72;4216288;28;19925;-68
2023/10/19 08:38:47;;;;;;;;;;;;;;;16.41;63.88;98655.56;4216176;28;19924;-67
2023/10/19 08:40:50;;;;;;;;;;;;;;;16.43;63.20;98658.09;4216408;28;19946;-66
2023/10/19 08:42:53;;;;;;;;;;;;;;;16.43;63.65;98652.78;4216532;28;19924;-67
2023/10/19 08:44:54;;;;;;;;;;;;;;;16.44;63.20;98646.50;4216510;28;19924;-67
2023/10/19 08:46:57;;;;;;;;;;;;;;;16.44;63.42;98647.34;4216075;28;20397;-68
2023/10/19 08:48:59;;;;;;;;;;;;;;;16.45;63.29;98642.84;4216294;28;19952;-67
2023/10/19 08:51:03;;;;;;;;;;;;;;;16.45;63.05;98656.13;4216185;28;19928;-67
2023/10/19 08:53:08;;;;;;;;;;;;;;;16.45;63.04;98643.72;4216341;28;20297;-67
2023/10/19 08:55:12;;;;;;;;;;;;;;;16.47;62.96;98648.03;4216233;28;19981;-67
2023/10/19 08:57:14;;;;;;;;;;;;;;;16.48;63.61;98647.88;4216108;28;20458;-67
2023/10/19 08:59:16;;;;;;;;;;;;;;;16.50;63.50;98647.75;4216277;28;19924;-68
2023/10/19 09:01:19;;;;;;;;;;;;;;;16.50;63.75;98643.28;4225295;28;20039;-67
2023/10/19 09:03:21;;;;;;;;;;;;;;;16.51;63.46;98650.25;4232945;28;20293;-67
2023/10/19 09:05:25;;;;;;;;;;;;;;;16.52;63.28;98649.25;4233004;28;19958;-66
2023/10/19 09:07:30;;;;;;;;;;;;;;;16.53;63.66;98642.97;4232828;28;20401;-67
2023/10/19 09:09:33;;;;;;;;;;;;;;;16.54;63.87;98643.84;4200877;28;19932;-68
2023/10/19 09:11:35;;;;;;;;;;;;;;;16.55;63.81;98641.03;4200270;28;20385;-64
2023/10/19 09:13:47;;;;;;;;;;;;;;;16.58;64.36;98640.72;4199178;28;19978;-65
2023/10/19 09:15:49;;;;;;;;;;;;;;;16.60;64.73;98637.94;4198858;28;20005;-63
2023/10/19 09:17:54;;;;;;;;;;;;;;;16.61;64.61;98636.97;4207970;28;19938;-65
2023/10/19 09:19:56;;;;;;;;;;;;;;;16.63;65.16;98629.69;4230864;28;19930;-65
2023/10/19 09:21:58;;;;;;;;;;;;;;;16.64;64.61;98627.88;4232527;28;19924;-66
2023/10/19 09:24:00;;;;;;;;;;;;;;;16.64;64.78;98635.84;4232452;28;19932;-66
2023/10/19 09:26:03;;;;;;;;;;;;;;;16.66;65.03;98626.75;4232553;28;19935;-66
2023/10/19 09:28:05;;;;;;;;;;;;;;;16.69;64.63;98621.13;4232400;28;19924;-67
2023/10/19 09:30:08;;;;;;;;;;;;;;;16.71;64.80;98626.31;4232398;28;20163;-66
2023/10/19 09:32:11;;;;;;;;;;;;;;;16.73;64.68;98624.34;4232349;28;20396;-68
2023/10/19 09:34:13;;;;;;;;;;;;;;;16.76;64.44;98616.91;4232401;28;19931;-66
2023/10/19 09:36:15;;;;;;;;;;;;;;;16.81;64.57;98615.66;4232249;28;19923;-67
2023/10/19 09:38:21;;;;;;;;;;;;;;;16.76;64.97;98595.69;4232326;28;19931;-67
2023/10/19 09:40:23;;;;;;;;;;;;;;;16.90;64.88;98599.69;4232232;28;20014;-67
2023/10/19 09:42:27;;;;;;;;;;;;;;;16.95;65.01;98599.28;4232420;28;19924;-68
2023/10/19 09:44:31;;;;;;;;;;;;;;;16.83;65.17;98573.84;4231932;28;20029;-68
2023/10/19 09:46:36;;;;;;;;;;;;;;;16.98;65.46;98592.84;4214236;28;19970;-68
2023/10/19 09:48:42;;;;;;;;;;;;;;;16.99;65.43;98582.06;4232017;28;19999;-65
2023/10/19 09:50:48;;;;;;;;;;;;;;;17.01;65.93;98581.91;4232240;28;19970;-68
2023/10/19 09:52:51;;;;;;;;;;;;;;;17.01;65.34;98596.03;4232089;28;20305;-66
2023/10/19 09:54:57;;;;;;;;;;;;;;;17.01;65.04;98587.22;4232127;28;19928;-67
2023/10/19 09:57:10;;;;;;;;;;;;;;;17.04;65.79;98589.56;4232261;28;20232;-65
2023/10/19 09:59:30;;;;;;;;;;;;;;;17.07;65.91;98584.81;4231627;28;20292;-65
2023/10/19 10:01:51;;;;;;;;;;;;;;;17.11;65.51;98589.81;4220087;28;20390;-66
2023/10/19 10:03:53;;;;;;;;;;;;;;;17.16;65.56;98588.38;4215016;28;19928;-65
2023/10/19 10:05:55;;;;;;;;;;;;;;;17.19;65.12;98581.94;4215001;28;19928;-66
2023/10/19 10:08:15;;;;;;;;;;;;;;;17.21;65.57;98591.41;4214999;28;19924;-65
2023/10/19 10:10:18;;;;;;;;;;;;;;;17.24;65.11;98599.09;4215063;28;19928;-65
2023/10/19 10:12:23;;;;;;;;;;;;;;;17.27;65.70;98602.41;4214840;28;19924;-64
2023/10/19 10:14:28;;;;;;;;;;;;;;;17.28;65.35;98596.97;4214947;28;19969;-65
2023/10/19 10:16:33;;;;;;;;;;;;;;;17.29;65.48;98596.00;4214616;28;20044;-65
2023/10/19 10:18:35;;;;;;;;;;;;;;;17.32;65.45;98585.06;4218406;28;19927;-65
2023/10/19 10:20:36;;;;;;;;;;;;;;;17.31;65.30;98594.00;4213628;28;20010;-65
2023/10/19 10:22:38;;;;;;;;;;;;;;;17.33;65.87;98577.94;4231810;28;19924;-63
2023/10/19 10:24:43;;;;;;;;;;;;;;;17.36;65.82;98586.44;4231135;28;19928;-66
2023/10/19 10:26:57;;;;;;;;;;;;;;;17.38;66.13;98578.31;4231235;28;19923;-65
2023/10/19 10:29:09;;;;;;;;;;;;;;;17.40;66.01;98576.34;4231332;28;19924;-65
2023/10/19 10:31:20;;;;;;;;;;;;;;;17.43;65.38;98575.22;4231150;28;19934;-65
2023/10/19 10:33:40;;;;;;;;;;;;;;;17.36;66.12;98561.69;4231494;28;20011;-64
2023/10/19 10:35:42;;;;;;;;;;;;;;;17.47;65.86;98572.06;4231420;28;19931;-64
2023/10/19 10:37:54;;;;;;;;;;;;;;;17.50;65.69;98569.13;4231052;28;19924;-64
2023/10/19 10:40:00;;;;;;;;;;;;;;;17.52;66.12;98567.16;4231160;28;20015;-63
2023/10/19 10:42:10;;;;;;;;;;;;;;;17.53;65.16;98570.63;4230737;28;19959;-63
2023/10/19 10:44:11;;;;;;;;;;;;;;;17.54;65.75;98559.84;4231279;28;19924;-66
2023/10/19 10:46:13;;;;;;;;;;;;;;;17.57;65.63;98556.06;4230926;28;19931;-65
2023/10/19 10:48:16;;;;;;;;;;;;;;;17.59;65.60;98551.41;4231282;28;20393;-64
2023/10/19 10:50:24;;;;;;;;;;;;;;;17.62;65.87;98542.28;4231093;28;19932;-63
2023/10/19 10:52:31;;;;;;;;;;;;;;;17.64;66.36;98541.16;4231159;28;19934;-64
2023/10/19 10:54:33;;;;;;;;;;;;;;;17.68;66.23;98528.38;4231078;28;19968;-64
2023/10/19 10:56:39;;;;;;;;;;;;;;;17.68;66.45;98531.91;4212526;28;19978;-64